createdAt,value
2018-02-24T00:00:24.090Z,15.1
2018-02-24T00:01:26.206Z,14.5
2018-02-24T00:02:28.431Z,14.4
2018-02-24T00:03:30.576Z,14.5
2018-02-24T00:04:32.774Z,14.9
2018-02-24T00:05:34.895Z,14.9
2018-02-24T00:06:37.110Z,15.1
2018-02-24T00:07:39.248Z,14.0
2018-02-24T00:08:41.450Z,14.9
2018-02-24T00:09:43.848Z,14.5
2018-02-24T00:10:45.988Z,14.8
2018-02-24T00:11:48.325Z,15.6
2018-02-24T00:12:50.470Z,15.0
2018-02-24T00:13:52.966Z,15.4
2018-02-24T00:14:55.320Z,15.1
2018-02-24T00:15:57.378Z,15.1
2018-02-24T00:16:59.867Z,15.0
2018-02-24T00:18:01.938Z,14.2
2018-02-24T00:19:03.944Z,14.9
2018-02-24T00:20:06.126Z,14.8
2018-02-24T00:21:08.253Z,15.1
2018-02-24T00:22:10.886Z,15.1
2018-02-24T00:23:13.173Z,14.7
2018-02-24T00:24:15.435Z,15.1
2018-02-24T00:25:17.880Z,15.8
2018-02-24T00:26:20.277Z,15.9
2018-02-24T00:27:22.443Z,15.4
2018-02-24T00:28:24.653Z,15.5
2018-02-24T00:29:27.009Z,15.7
2018-02-24T00:30:29.532Z,16.1
2018-02-24T00:31:31.754Z,16.2
2018-02-24T00:32:34.084Z,15.6
2018-02-24T00:33:36.683Z,15.7
2018-02-24T00:34:39.189Z,16.1
2018-02-24T00:35:41.727Z,15.6
2018-02-24T00:36:43.884Z,16.4
2018-02-24T00:37:46.257Z,15.7
2018-02-24T00:38:48.596Z,16.6
2018-02-24T00:39:51.090Z,16.1
2018-02-24T00:40:53.231Z,16.2
2018-02-24T00:41:55.356Z,16.1
2018-02-24T00:42:57.699Z,15.9
2018-02-24T00:43:59.882Z,16.7
2018-02-24T00:45:08.515Z,16.4
2018-02-24T00:46:10.688Z,16.7
2018-02-24T00:47:13.189Z,16.2
2018-02-24T00:48:15.794Z,16.6
2018-02-24T00:49:17.933Z,16.5
2018-02-24T00:50:20.043Z,16.9
2018-02-24T00:51:22.188Z,17.0
2018-02-24T00:52:24.361Z,16.3
2018-02-24T00:53:26.894Z,17.2
2018-02-24T00:54:29.010Z,16.8
2018-02-24T00:55:31.368Z,16.7
2018-02-24T00:56:33.462Z,17.4
2018-02-24T00:57:35.974Z,17.0
2018-02-24T00:58:38.469Z,15.7
2018-02-24T00:59:40.473Z,16.7
2018-02-24T01:00:42.786Z,17.7
2018-02-24T01:01:45.184Z,17.3
2018-02-24T01:02:47.527Z,17.3
2018-02-24T01:03:49.940Z,17.2
2018-02-24T01:04:52.049Z,16.9
2018-02-24T01:05:54.263Z,17.3
2018-02-24T01:06:56.389Z,16.7
2018-02-24T01:07:58.553Z,16.8
2018-02-24T01:09:01.200Z,17.6
2018-02-24T01:10:03.641Z,18.5
2018-02-24T01:11:06.274Z,17.5
2018-02-24T01:12:08.444Z,17.4
2018-02-24T01:13:10.869Z,17.4
2018-02-24T01:14:13.090Z,16.9
2018-02-24T01:15:15.271Z,18.1
2018-02-24T01:16:17.720Z,17.7
2018-02-24T01:17:20.096Z,16.6
2018-02-24T01:18:22.306Z,17.6
2018-02-24T01:19:24.524Z,16.9
2018-02-24T01:20:27.131Z,17.4
2018-02-24T01:21:29.669Z,16.9
2018-02-24T01:22:32.072Z,17.3
2018-02-24T01:23:34.510Z,17.8
2018-02-24T01:24:36.943Z,17.0
2018-02-24T01:25:39.344Z,16.4
2018-02-24T01:26:41.486Z,17.3
2018-02-24T01:27:44.036Z,18.5
2018-02-24T01:28:46.204Z,18.8
2018-02-24T01:29:48.407Z,17.6
2018-02-24T01:30:50.810Z,18.7
2018-02-24T01:31:53.070Z,19.4
2018-02-24T01:32:55.644Z,19.0
2018-02-24T01:33:57.950Z,19.3
2018-02-24T01:35:00.200Z,19.2
2018-02-24T01:36:02.830Z,19.2
2018-02-24T01:37:05.470Z,18.5
2018-02-24T01:38:07.493Z,20.2
2018-02-24T01:39:10.171Z,19.3
2018-02-24T01:40:12.696Z,18.8
2018-02-24T01:41:14.816Z,19.8
2018-02-24T01:42:17.325Z,20.1
2018-02-24T01:43:19.549Z,19.5
2018-02-24T01:44:21.798Z,19.6
2018-02-24T01:45:24.232Z,19.9
2018-02-24T01:46:26.656Z,19.5
2018-02-24T01:47:29.166Z,19.2
2018-02-24T01:48:31.691Z,19.1
2018-02-24T01:49:34.157Z,19.4
2018-02-24T01:50:36.349Z,19.4
2018-02-24T01:51:38.540Z,19.7
2018-02-24T01:52:41.132Z,19.9
2018-02-24T01:53:43.335Z,19.6
2018-02-24T01:54:45.591Z,19.8
2018-02-24T01:55:48.034Z,19.0
2018-02-24T01:56:50.315Z,19.9
2018-02-24T01:57:52.364Z,20.0
2018-02-24T01:58:54.953Z,19.9
2018-02-24T01:59:57.024Z,19.8
2018-02-24T02:00:59.120Z,20.6
2018-02-24T02:02:01.276Z,20.0
2018-02-24T02:03:03.974Z,19.3
2018-02-24T02:04:06.154Z,20.3
2018-02-24T02:05:08.679Z,20.0
2018-02-24T02:06:11.196Z,20.6
2018-02-24T02:07:13.818Z,21.3
2018-02-24T02:08:16.262Z,21.3
2018-02-24T02:09:18.845Z,20.7
2018-02-24T02:10:21.352Z,20.8
2018-02-24T02:11:23.972Z,21.2
2018-02-24T02:12:26.403Z,21.6
2018-02-24T02:13:28.863Z,22.1
2018-02-24T02:14:31.388Z,21.7
2018-02-24T02:15:33.566Z,22.8
2018-02-24T02:16:36.870Z,23.4
2018-02-24T02:17:39.356Z,23.4
2018-02-24T02:18:41.369Z,22.1
2018-02-24T02:19:43.488Z,22.8
2018-02-24T02:20:45.941Z,23.1
2018-02-24T02:21:48.093Z,22.9
2018-02-24T02:22:50.556Z,23.1
2018-02-24T02:23:52.689Z,24.1
2018-02-24T02:24:55.140Z,22.9
2018-02-24T02:25:57.737Z,23.4
2018-02-24T02:27:00.237Z,22.9
2018-02-24T02:28:02.573Z,23.8
2018-02-24T02:29:05.076Z,23.5
2018-02-24T02:30:07.151Z,24.0
2018-02-24T02:31:09.652Z,23.5
2018-02-24T02:32:12.035Z,24.1
2018-02-24T02:33:14.153Z,24.4
2018-02-24T02:34:16.447Z,24.2
2018-02-24T02:35:18.977Z,25.0
2018-02-24T02:36:21.569Z,24.4
2018-02-24T02:37:24.154Z,23.9
2018-02-24T02:38:26.302Z,24.8
2018-02-24T02:39:28.975Z,25.2
2018-02-24T02:40:31.081Z,24.9
2018-02-24T02:41:33.233Z,24.7
2018-02-24T02:42:35.765Z,24.9
2018-02-24T02:43:38.288Z,25.4
2018-02-24T02:44:40.701Z,25.1
2018-02-24T02:45:42.845Z,26.4
2018-02-24T02:46:45.100Z,25.1
2018-02-24T02:47:47.243Z,25.9
2018-02-24T02:48:49.863Z,25.5
2018-02-24T02:49:51.996Z,25.9
2018-02-24T02:50:54.199Z,24.3
2018-02-24T02:51:56.326Z,26.8
2018-02-24T02:52:58.519Z,25.3
2018-02-24T02:54:00.732Z,25.7
2018-02-24T02:55:03.246Z,26.5
2018-02-24T02:56:05.457Z,26.1
2018-02-24T02:57:07.968Z,26.3
2018-02-24T02:58:10.076Z,26.0
2018-02-24T02:59:12.246Z,26.7
2018-02-24T03:00:14.398Z,25.0
2018-02-24T03:01:16.793Z,25.3
2018-02-24T03:02:18.963Z,25.2
2018-02-24T03:03:21.159Z,24.5
2018-02-24T03:04:23.316Z,24.5
2018-02-24T03:05:25.494Z,25.3
2018-02-24T03:06:27.941Z,25.3
2018-02-24T03:07:30.063Z,24.9
2018-02-24T03:08:32.466Z,26.8
2018-02-24T03:09:34.996Z,25.3
2018-02-24T03:10:37.493Z,25.6
2018-02-24T03:11:39.899Z,24.5
2018-02-24T03:12:42.354Z,26.1
2018-02-24T03:13:44.497Z,26.3
2018-02-24T03:14:46.842Z,25.5
2018-02-24T03:15:48.892Z,26.2
2018-02-24T03:16:51.053Z,25.3
2018-02-24T03:17:53.100Z,26.3
2018-02-24T03:18:55.601Z,25.8
2018-02-24T03:19:57.706Z,25.0
2018-02-24T03:20:59.978Z,25.6
2018-02-24T03:22:02.305Z,25.2
2018-02-24T03:23:04.808Z,26.5
2018-02-24T03:24:07.232Z,26.1
2018-02-24T03:25:09.646Z,26.5
2018-02-24T03:26:12.016Z,26.1
2018-02-24T03:27:14.480Z,25.9
2018-02-24T03:28:16.877Z,26.2
2018-02-24T03:29:18.991Z,26.4
2018-02-24T03:30:21.533Z,24.9
2018-02-24T03:31:23.751Z,25.7
2018-02-24T03:32:25.828Z,25.5
2018-02-24T03:33:28.041Z,25.0
2018-02-24T03:34:30.227Z,24.9
2018-02-24T03:35:32.743Z,24.7
2018-02-24T03:36:35.221Z,25.5
2018-02-24T03:37:37.334Z,24.4
2018-02-24T03:38:39.412Z,25.4
2018-02-24T03:39:41.549Z,25.2
2018-02-24T03:40:43.670Z,24.8
2018-02-24T03:41:46.176Z,24.4
2018-02-24T03:42:48.678Z,24.4
2018-02-24T03:43:51.098Z,24.2
2018-02-24T03:44:53.155Z,25.0
2018-02-24T03:45:55.399Z,24.6
2018-02-24T03:46:57.636Z,24.2
2018-02-24T03:48:00.191Z,24.7
2018-02-24T03:49:02.260Z,23.1
2018-02-24T03:50:04.758Z,24.8
2018-02-24T03:51:06.915Z,24.9
2018-02-24T03:52:09.044Z,25.3
2018-02-24T03:53:11.269Z,25.3
2018-02-24T03:54:13.678Z,23.6
2018-02-24T03:55:15.717Z,24.4
2018-02-24T03:56:18.167Z,23.1
2018-02-24T03:57:20.716Z,24.2
2018-02-24T03:58:22.826Z,23.7
2018-02-24T03:59:25.006Z,24.1
2018-02-24T04:00:27.130Z,24.3
2018-02-24T04:01:29.546Z,25.0
2018-02-24T04:02:32.206Z,22.7
2018-02-24T04:03:34.626Z,23.8
2018-02-24T04:04:37.229Z,24.3
2018-02-24T04:05:39.692Z,23.7
2018-02-24T04:06:41.943Z,25.2
2018-02-24T04:07:44.049Z,24.2
2018-02-24T04:08:46.315Z,24.1
2018-02-24T04:09:48.881Z,23.7
2018-02-24T04:10:51.041Z,22.5
2018-02-24T04:11:53.275Z,22.4
2018-02-24T04:12:55.477Z,24.6
2018-02-24T04:13:57.979Z,24.5
2018-02-24T04:15:00.189Z,23.7
2018-02-24T04:16:02.674Z,23.5
2018-02-24T04:17:04.809Z,23.3
2018-02-24T04:18:07.016Z,23.4
2018-02-24T04:19:09.080Z,22.7
2018-02-24T04:20:11.270Z,23.8
2018-02-24T04:21:13.567Z,21.6
2018-02-24T04:22:16.178Z,24.0
2018-02-24T04:23:18.682Z,22.5
2018-02-24T04:24:20.749Z,21.8
2018-02-24T04:25:22.823Z,23.7
2018-02-24T04:26:24.857Z,23.2
2018-02-24T04:27:27.220Z,23.0
2018-02-24T04:28:29.334Z,23.0
2018-02-24T04:29:31.852Z,23.0
2018-02-24T04:30:33.918Z,22.3
2018-02-24T04:31:36.176Z,23.5
2018-02-24T04:32:38.624Z,23.1
2018-02-24T04:33:41.149Z,22.3
2018-02-24T04:34:43.670Z,23.1
2018-02-24T04:35:45.754Z,22.7
2018-02-24T04:36:47.844Z,23.7
2018-02-24T04:37:50.055Z,22.7
2018-02-24T04:38:52.179Z,23.0
2018-02-24T04:39:54.499Z,22.7
2018-02-24T04:40:56.640Z,23.5
2018-02-24T04:41:59.166Z,22.5
2018-02-24T04:43:01.483Z,22.4
2018-02-24T04:44:03.692Z,22.4
2018-02-24T04:45:06.210Z,22.9
2018-02-24T04:46:08.241Z,23.0
2018-02-24T04:47:10.443Z,22.6
2018-02-24T04:48:12.608Z,21.9
2018-02-24T04:49:15.194Z,21.3
2018-02-24T04:50:17.632Z,21.9
2018-02-24T04:51:19.756Z,22.0
2018-02-24T04:52:22.307Z,20.8
2018-02-24T04:53:24.634Z,21.8
2018-02-24T04:54:27.109Z,21.8
2018-02-24T04:55:29.532Z,22.5
2018-02-24T04:56:31.594Z,22.3
2018-02-24T04:57:33.781Z,21.8
2018-02-24T04:58:35.976Z,21.2
2018-02-24T04:59:38.108Z,21.4
2018-02-24T05:00:40.235Z,20.7
2018-02-24T05:01:42.816Z,21.3
2018-02-24T05:02:45.294Z,20.9
2018-02-24T05:03:47.543Z,21.4
2018-02-24T05:04:50.153Z,22.1
2018-02-24T05:05:52.224Z,21.7
2018-02-24T05:06:54.765Z,21.5
2018-02-24T05:07:56.914Z,21.1
2018-02-24T05:08:59.371Z,21.9
2018-02-24T05:10:01.372Z,21.9
2018-02-24T05:11:03.598Z,21.0
2018-02-24T05:12:05.935Z,21.3
2018-02-24T05:13:08.464Z,20.6
2018-02-24T05:14:10.923Z,20.5
2018-02-24T05:15:12.993Z,21.1
2018-02-24T05:16:15.573Z,20.6
2018-02-24T05:17:17.712Z,20.1
2018-02-24T05:18:20.097Z,19.5
2018-02-24T05:19:22.205Z,21.1
2018-02-24T05:20:24.638Z,20.0
2018-02-24T05:21:27.020Z,20.1
2018-02-24T05:22:29.427Z,20.1
2018-02-24T05:23:31.539Z,19.5
2018-02-24T05:24:33.701Z,20.3
2018-02-24T05:25:36.293Z,19.4
2018-02-24T05:26:38.479Z,20.5
2018-02-24T05:27:41.040Z,19.9
2018-02-24T05:28:43.254Z,19.1
2018-02-24T05:29:45.682Z,19.3
2018-02-24T05:30:47.800Z,19.6
2018-02-24T05:31:49.992Z,19.0
2018-02-24T05:32:52.124Z,19.6
2018-02-24T05:33:54.262Z,20.0
2018-02-24T05:34:56.814Z,19.5
2018-02-24T05:35:59.311Z,20.2
2018-02-24T05:37:01.793Z,19.8
2018-02-24T05:38:03.921Z,19.5
2018-02-24T05:39:06.326Z,19.7
2018-02-24T05:40:08.452Z,19.2
2018-02-24T05:41:10.821Z,19.9
2018-02-24T05:42:13.290Z,19.6
2018-02-24T05:43:15.658Z,18.7
2018-02-24T05:44:17.776Z,19.9
2018-02-24T05:45:20.161Z,18.7
2018-02-24T05:46:22.570Z,19.0
2018-02-24T05:47:25.066Z,18.8
2018-02-24T05:48:27.280Z,18.2
2018-02-24T05:49:29.757Z,18.6
2018-02-24T05:50:32.059Z,18.3
2018-02-24T05:51:34.216Z,18.3
2018-02-24T05:52:36.379Z,19.4
2018-02-24T05:53:38.552Z,18.1
2018-02-24T05:54:41.096Z,18.5
2018-02-24T05:55:43.086Z,18.7
2018-02-24T05:56:45.271Z,18.0
2018-02-24T05:57:47.398Z,18.8
2018-02-24T05:58:49.661Z,18.3
2018-02-24T05:59:51.838Z,18.0
2018-02-24T06:00:53.999Z,17.3
2018-02-24T06:01:56.295Z,17.0
2018-02-24T06:02:58.489Z,17.8
2018-02-24T06:04:00.842Z,18.3
2018-02-24T06:05:03.056Z,17.8
2018-02-24T06:06:05.836Z,17.8
2018-02-24T06:07:07.884Z,17.8
2018-02-24T06:08:10.362Z,17.5
2018-02-24T06:09:13.516Z,17.7
2018-02-24T06:10:15.784Z,17.7
2018-02-24T06:11:18.265Z,18.2
2018-02-24T06:12:20.565Z,17.1
2018-02-24T06:13:22.548Z,17.0
2018-02-24T06:14:25.180Z,17.6
2018-02-24T06:15:27.266Z,17.9
2018-02-24T06:16:29.061Z,16.8
2018-02-24T06:17:31.276Z,17.8
2018-02-24T06:18:33.792Z,17.5
2018-02-24T06:19:36.001Z,18.2
2018-02-24T06:20:38.507Z,17.2
2018-02-24T06:21:40.767Z,17.4
2018-02-24T06:22:42.874Z,17.8
2018-02-24T06:23:45.148Z,17.4
2018-02-24T06:24:47.312Z,17.6
2018-02-24T06:25:49.407Z,17.2
2018-02-24T06:26:51.584Z,16.7
2018-02-24T06:27:53.707Z,17.8
2018-02-24T06:28:56.321Z,17.3
2018-02-24T06:29:58.417Z,17.2
2018-02-24T06:31:00.646Z,16.4
2018-02-24T06:32:02.807Z,17.9
2018-02-24T06:33:04.911Z,17.5
2018-02-24T06:34:06.962Z,17.5
2018-02-24T06:35:08.912Z,17.8
2018-02-24T06:36:11.789Z,16.9
2018-02-24T06:37:14.032Z,17.2
2018-02-24T06:38:16.264Z,17.7
2018-02-24T06:39:19.154Z,17.9
2018-02-24T06:40:21.349Z,17.2
2018-02-24T06:41:23.249Z,17.7
2018-02-24T06:42:25.541Z,16.9
2018-02-24T06:43:27.721Z,17.6
2018-02-24T06:44:29.499Z,17.6
2018-02-24T06:45:31.853Z,17.1
2018-02-24T06:46:34.164Z,17.7
2018-02-24T06:47:36.292Z,16.8
2018-02-24T06:48:38.467Z,17.5
2018-02-24T06:49:40.907Z,17.4
2018-02-24T06:50:43.532Z,17.6
2018-02-24T06:51:45.972Z,18.2
2018-02-24T06:52:47.989Z,17.1
2018-02-24T06:53:50.138Z,18.7
2018-02-24T06:54:52.293Z,17.1
2018-02-24T06:55:55.312Z,18.5
2018-02-24T06:56:57.848Z,18.8
2018-02-24T06:58:00.268Z,18.6
2018-02-24T06:59:02.306Z,18.4
2018-02-24T07:00:04.739Z,17.4
2018-02-24T07:01:07.120Z,19.8
2018-02-24T07:02:09.134Z,19.6
2018-02-24T07:03:11.633Z,19.9
2018-02-24T07:04:13.634Z,19.6
2018-02-24T07:05:15.780Z,19.5
2018-02-24T07:06:17.878Z,19.8
2018-02-24T07:07:20.995Z,19.5
2018-02-24T07:08:23.107Z,18.7
2018-02-24T07:09:25.128Z,20.6
2018-02-24T07:10:27.245Z,19.7
2018-02-24T07:11:29.648Z,19.9
2018-02-24T07:12:31.708Z,19.5
2018-02-24T07:13:35.320Z,19.3
2018-02-24T07:14:38.092Z,19.7
2018-02-24T07:15:40.212Z,20.0
2018-02-24T07:16:42.747Z,19.7
2018-02-24T07:17:45.433Z,20.1
2018-02-24T07:18:47.796Z,20.1
2018-02-24T07:19:50.720Z,18.6
2018-02-24T07:20:53.124Z,17.9
2018-02-24T07:21:55.038Z,19.5
2018-02-24T07:22:58.006Z,18.9
2018-02-24T07:24:00.345Z,19.0
2018-02-24T07:25:03.740Z,18.9
2018-02-24T07:26:06.161Z,18.5
2018-02-24T07:27:08.829Z,19.9
2018-02-24T07:28:10.870Z,19.2
2018-02-24T07:29:13.200Z,19.5
2018-02-24T07:30:15.857Z,19.4
2018-02-24T07:31:22.168Z,19.7
2018-02-24T07:32:24.426Z,19.1
2018-02-24T07:33:28.346Z,19.7
2018-02-24T07:34:30.351Z,19.0
2018-02-24T07:35:32.326Z,19.8
2018-02-24T07:36:34.305Z,18.8
2018-02-24T07:37:37.780Z,18.6
2018-02-24T07:38:40.438Z,19.6
2018-02-24T07:39:42.519Z,18.4
2018-02-24T07:40:44.832Z,18.8
2018-02-24T07:41:47.276Z,19.0
2018-02-24T07:42:48.984Z,17.6
2018-02-24T07:43:50.707Z,17.8
2018-02-24T07:44:52.368Z,17.5
2018-02-24T07:45:54.443Z,18.0
2018-02-24T07:46:56.518Z,17.9
2018-02-24T07:47:58.472Z,17.7
2018-02-24T07:49:00.436Z,17.6
2018-02-24T07:50:02.176Z,17.5
2018-02-24T07:51:03.977Z,18.4
2018-02-24T07:52:06.306Z,17.7
2018-02-24T07:53:08.291Z,17.9
2018-02-24T07:54:10.088Z,17.9
2018-02-24T07:55:11.796Z,16.5
2018-02-24T07:56:14.141Z,18.1
2018-02-24T07:57:15.863Z,17.1
2018-02-24T07:58:17.787Z,17.1
2018-02-24T07:59:20.693Z,17.0
2018-02-24T08:00:22.487Z,17.1
2018-02-24T08:01:24.245Z,17.3
2018-02-24T08:02:26.584Z,17.0
2018-02-24T08:03:28.653Z,16.8
2018-02-24T08:04:30.355Z,17.1
2018-02-24T08:05:32.374Z,16.4
2018-02-24T08:06:34.471Z,15.8
2018-02-24T08:07:36.611Z,16.4
2018-02-24T08:08:38.804Z,17.2
2018-02-24T08:09:40.900Z,16.1
2018-02-24T08:10:42.981Z,16.2
2018-02-24T08:11:45.049Z,16.6
2018-02-24T08:12:47.197Z,16.3
2018-02-24T08:13:49.189Z,16.2
2018-02-24T08:14:51.313Z,17.1
2018-02-24T08:15:53.461Z,16.0
2018-02-24T08:16:55.420Z,15.1
2018-02-24T08:17:57.146Z,15.3
2018-02-24T08:18:58.910Z,15.4
2018-02-24T08:20:00.866Z,14.6
2018-02-24T08:21:02.812Z,15.5
2018-02-24T08:22:04.841Z,15.1
2018-02-24T08:23:06.672Z,15.0
2018-02-24T08:24:08.513Z,14.7
2018-02-24T08:25:10.294Z,13.9
2018-02-24T08:26:12.083Z,14.2
2018-02-24T08:27:13.865Z,14.7
2018-02-24T08:28:15.983Z,13.3
2018-02-24T08:29:18.107Z,13.9
2018-02-24T08:30:20.155Z,14.0
2018-02-24T08:31:22.332Z,13.7
2018-02-24T08:32:24.352Z,14.1
2018-02-24T08:33:26.622Z,13.2
2018-02-24T08:34:28.777Z,13.0
2018-02-24T08:35:30.632Z,12.9
2018-02-24T08:36:32.364Z,13.0
2018-02-24T08:37:34.151Z,12.9
2018-02-24T08:38:35.891Z,12.8
2018-02-24T08:39:37.652Z,13.1
2018-02-24T08:40:39.457Z,12.8
2018-02-24T08:41:41.454Z,12.9
2018-02-24T08:42:43.478Z,12.6
2018-02-24T08:43:45.171Z,12.7
2018-02-24T08:44:47.310Z,12.0
2018-02-24T08:45:49.496Z,12.4
2018-02-24T08:46:51.450Z,12.5
2018-02-24T08:47:53.188Z,12.2
2018-02-24T08:48:54.933Z,11.6
2018-02-24T08:49:56.688Z,11.8
2018-02-24T08:50:58.647Z,11.7
2018-02-24T08:52:00.769Z,11.8
2018-02-24T08:53:02.462Z,12.0
2018-02-24T08:54:04.374Z,11.9
2018-02-24T08:55:06.648Z,12.1
2018-02-24T08:56:08.713Z,11.8
2018-02-24T08:57:10.780Z,11.6
2018-02-24T08:58:12.500Z,12.0
2018-02-24T08:59:14.414Z,12.0
2018-02-24T09:00:16.171Z,11.1
2018-02-24T09:01:18.116Z,10.4
2018-02-24T09:02:19.924Z,11.7
2018-02-24T09:03:21.992Z,11.5
2018-02-24T09:04:24.064Z,11.8
2018-02-24T09:05:26.041Z,11.3
2018-02-24T09:06:27.798Z,10.8
2018-02-24T09:07:30.043Z,10.7
2018-02-24T09:08:32.148Z,11.9
2018-02-24T09:09:34.178Z,11.1
2018-02-24T09:10:36.344Z,11.1
2018-02-24T09:11:38.330Z,10.1
2018-02-24T09:12:40.037Z,10.6
2018-02-24T09:13:41.785Z,10.6
2018-02-24T09:14:43.660Z,10.7
2018-02-24T09:15:45.374Z,10.1
2018-02-24T09:16:47.387Z,10.4
2018-02-24T09:17:49.352Z,10.0
2018-02-24T09:18:51.042Z,10.3
2018-02-24T09:19:53.026Z,11.0
2018-02-24T09:20:54.782Z,10.5
2018-02-24T09:21:56.495Z,10.8
2018-02-24T09:22:58.220Z,10.8
2018-02-24T09:24:00.096Z,10.3
2018-02-24T09:25:02.077Z,10.4
2018-02-24T09:26:03.993Z,10.1
2018-02-24T09:27:06.126Z,10.1
2018-02-24T09:28:08.061Z,9.9
2018-02-24T09:29:10.208Z,9.6
2018-02-24T09:30:11.969Z,10.0
2018-02-24T09:31:13.684Z,9.0
2018-02-24T09:32:15.657Z,9.3
2018-02-24T09:33:17.758Z,9.1
2018-02-24T09:34:19.571Z,8.8
2018-02-24T09:35:21.314Z,8.8
2018-02-24T09:36:23.068Z,9.2
2018-02-24T09:37:24.865Z,9.1
2018-02-24T09:38:26.768Z,8.7
2018-02-24T09:39:28.537Z,8.8
2018-02-24T09:40:30.378Z,8.1
2018-02-24T09:41:32.127Z,8.1
2018-02-24T09:42:33.999Z,8.8
2018-02-24T09:43:35.785Z,8.2
2018-02-24T09:44:37.719Z,8.1
2018-02-24T09:45:39.860Z,8.1
2018-02-24T09:46:41.775Z,8.4
2018-02-24T09:47:43.888Z,7.6
2018-02-24T09:48:45.840Z,7.9
2018-02-24T09:49:48.381Z,7.4
2018-02-24T09:50:50.469Z,7.4
2018-02-24T09:51:52.185Z,7.2
2018-02-24T09:52:53.991Z,6.9
2018-02-24T09:53:55.983Z,7.2
2018-02-24T09:54:57.676Z,7.3
2018-02-24T09:55:59.422Z,6.6
2018-02-24T09:57:01.347Z,7.3
2018-02-24T09:58:03.502Z,7.4
2018-02-24T09:59:05.444Z,7.4
2018-02-24T10:00:07.245Z,7.9
2018-02-24T10:01:09.192Z,7.7
2018-02-24T10:02:10.982Z,8.1
2018-02-24T10:03:12.769Z,7.7
2018-02-24T10:04:14.574Z,8.1
2018-02-24T10:05:16.577Z,7.0
2018-02-24T10:06:18.773Z,7.0
2018-02-24T10:07:20.659Z,7.0
2018-02-24T10:08:22.386Z,6.9
2018-02-24T10:09:24.363Z,7.1
2018-02-24T10:10:26.412Z,7.4
2018-02-24T10:11:28.212Z,7.3
2018-02-24T10:12:29.924Z,7.7
2018-02-24T10:13:31.704Z,7.5
2018-02-24T10:14:33.464Z,7.6
2018-02-24T10:15:35.602Z,8.1
2018-02-24T10:16:37.617Z,8.3
2018-02-24T10:17:39.370Z,8.7
2018-02-24T10:18:41.333Z,8.6
2018-02-24T10:19:43.362Z,8.3
2018-02-24T10:20:45.108Z,8.2
2018-02-24T10:21:46.869Z,8.3
2018-02-24T10:22:48.576Z,8.3
2018-02-24T10:23:50.559Z,8.6
2018-02-24T10:24:52.331Z,8.2
2018-02-24T10:25:54.163Z,8.3
2018-02-24T10:26:56.239Z,8.0
2018-02-24T10:27:58.272Z,7.3
2018-02-24T10:29:00.268Z,8.7
2018-02-24T10:30:01.983Z,7.9
2018-02-24T10:31:04.212Z,8.7
2018-02-24T10:32:06.330Z,9.2
2018-02-24T10:33:08.282Z,10.0
2018-02-24T10:34:10.436Z,9.7
2018-02-24T10:35:12.355Z,9.9
2018-02-24T10:36:14.275Z,9.6
2018-02-24T10:37:16.398Z,10.4
2018-02-24T10:38:18.520Z,10.4
2018-02-24T10:39:20.440Z,9.9
2018-02-24T10:40:22.315Z,9.4
2018-02-24T10:41:24.124Z,9.7
2018-02-24T10:42:25.867Z,9.9
2018-02-24T10:43:27.630Z,9.6
2018-02-24T10:44:29.603Z,10.2
2018-02-24T10:45:31.610Z,9.7
2018-02-24T10:46:33.353Z,10.0
2018-02-24T10:47:35.105Z,10.1
2018-02-24T10:48:37.007Z,9.7
2018-02-24T10:49:38.916Z,10.2
2018-02-24T10:50:40.650Z,9.4
2018-02-24T10:51:42.654Z,8.9
2018-02-24T10:52:44.394Z,9.5
2018-02-24T10:53:46.326Z,8.9
2018-02-24T10:54:48.399Z,9.9
2018-02-24T10:55:50.294Z,9.5
2018-02-24T10:56:52.545Z,9.1
2018-02-24T10:57:54.305Z,8.8
2018-02-24T10:58:56.646Z,9.2
2018-02-24T10:59:58.430Z,8.7
2018-02-24T11:01:00.473Z,8.9
2018-02-24T11:02:02.559Z,9.0
2018-02-24T11:03:04.684Z,9.0
2018-02-24T11:04:06.757Z,8.8
2018-02-24T11:05:08.708Z,8.6
2018-02-24T11:06:10.506Z,9.0
2018-02-24T11:07:12.627Z,8.7
2018-02-24T11:08:14.564Z,8.7
2018-02-24T11:09:16.620Z,9.0
2018-02-24T11:10:18.816Z,8.2
2018-02-24T11:11:20.680Z,8.4
2018-02-24T11:12:22.445Z,9.2
2018-02-24T11:13:24.207Z,8.3
2018-02-24T11:14:26.134Z,8.6
2018-02-24T11:15:28.064Z,8.5
2018-02-24T11:16:30.235Z,8.5
2018-02-24T11:17:32.185Z,8.6
2018-02-24T11:18:34.042Z,9.1
2018-02-24T11:19:36.166Z,8.3
2018-02-24T11:20:38.175Z,8.5
2018-02-24T11:21:40.258Z,8.2
2018-02-24T11:22:42.030Z,8.2
2018-02-24T11:23:44.187Z,8.1
2018-02-24T11:24:45.876Z,8.2
2018-02-24T11:25:47.599Z,8.3
2018-02-24T11:26:49.336Z,8.4
2018-02-24T11:27:51.236Z,7.8
2018-02-24T11:28:53.172Z,8.5
2018-02-24T11:29:55.038Z,8.5
2018-02-24T11:30:56.823Z,7.6
2018-02-24T11:31:58.537Z,8.1
2018-02-24T11:33:00.305Z,8.1
2018-02-24T11:34:02.122Z,8.5
2018-02-24T11:35:03.965Z,8.3
2018-02-24T11:36:05.884Z,8.1
2018-02-24T11:37:07.683Z,7.8
2018-02-24T11:38:09.546Z,7.5
2018-02-24T11:39:11.384Z,7.9
2018-02-24T11:40:13.177Z,8.0
2018-02-24T11:41:15.084Z,7.8
2018-02-24T11:42:16.836Z,7.9
2018-02-24T11:43:18.629Z,7.8
2018-02-24T11:44:20.340Z,7.1
2018-02-24T11:45:22.189Z,7.5
2018-02-24T11:46:23.952Z,7.7
2018-02-24T11:47:25.660Z,7.6
2018-02-24T11:48:27.563Z,7.9
2018-02-24T11:49:29.351Z,7.5
2018-02-24T11:50:31.084Z,8.1
2018-02-24T11:51:32.894Z,8.0
2018-02-24T11:52:34.621Z,7.9
2018-02-24T11:53:36.340Z,7.4
2018-02-24T11:54:38.127Z,7.5
2018-02-24T11:55:39.882Z,7.3
2018-02-24T11:56:41.617Z,8.0
2018-02-24T11:57:43.412Z,8.6
2018-02-24T11:58:45.123Z,8.4
2018-02-24T11:59:46.927Z,7.8
2018-02-24T12:00:48.738Z,7.7
2018-02-24T12:01:50.456Z,8.2
2018-02-24T12:02:52.277Z,8.0
2018-02-24T12:03:54.087Z,8.3
2018-02-24T12:04:55.917Z,8.3
2018-02-24T12:05:57.664Z,8.3
2018-02-24T12:06:59.452Z,8.0
2018-02-24T12:08:01.181Z,8.0
2018-02-24T12:09:02.873Z,8.2
2018-02-24T12:10:04.667Z,8.1
2018-02-24T12:11:06.404Z,7.9
2018-02-24T12:12:08.191Z,8.1
2018-02-24T12:13:09.964Z,8.2
2018-02-24T12:14:11.796Z,8.0
2018-02-24T12:15:13.550Z,8.3
2018-02-24T12:16:15.334Z,8.0
2018-02-24T12:17:17.109Z,8.2
2018-02-24T12:18:18.831Z,8.3
2018-02-24T12:19:20.565Z,7.8
2018-02-24T12:20:22.252Z,7.8
2018-02-24T12:21:24.019Z,8.0
2018-02-24T12:22:25.796Z,8.1
2018-02-24T12:23:28.785Z,7.9
2018-02-24T12:24:30.522Z,8.1
2018-02-24T12:25:32.245Z,7.6
2018-02-24T12:26:33.971Z,8.1
2018-02-24T12:27:35.719Z,7.7
2018-02-24T12:28:37.477Z,8.1
2018-02-24T12:29:39.210Z,8.4
2018-02-24T12:30:41.086Z,8.2
2018-02-24T12:31:42.903Z,8.1
2018-02-24T12:32:44.782Z,8.2
2018-02-24T12:33:46.511Z,8.4
2018-02-24T12:34:48.328Z,7.8
2018-02-24T12:35:50.069Z,8.3
2018-02-24T12:36:51.824Z,7.9
2018-02-24T12:37:53.596Z,7.6
2018-02-24T12:38:55.348Z,7.3
2018-02-24T12:39:57.070Z,8.0
2018-02-24T12:40:58.854Z,8.0
2018-02-24T12:42:00.591Z,7.5
2018-02-24T12:43:02.329Z,7.8
2018-02-24T12:44:04.120Z,7.9
2018-02-24T12:45:05.825Z,8.5
2018-02-24T12:46:07.516Z,7.4
2018-02-24T12:47:09.299Z,7.6
2018-02-24T12:48:11.076Z,7.9
2018-02-24T12:49:12.871Z,8.0
2018-02-24T12:50:14.572Z,7.3
2018-02-24T12:51:16.340Z,7.8
2018-02-24T12:52:18.063Z,7.5
2018-02-24T12:53:19.830Z,7.4
2018-02-24T12:54:21.589Z,7.8
2018-02-24T12:55:23.319Z,7.6
2018-02-24T12:56:25.194Z,7.6
2018-02-24T12:57:26.960Z,8.1
2018-02-24T12:58:28.668Z,8.0
2018-02-24T12:59:30.429Z,7.7
2018-02-24T13:00:32.145Z,7.8
2018-02-24T13:01:33.944Z,7.5
2018-02-24T13:02:35.651Z,7.7
2018-02-24T13:03:37.594Z,7.8
2018-02-24T13:04:39.357Z,7.9
2018-02-24T13:05:41.197Z,7.4
2018-02-24T13:06:42.988Z,7.4
2018-02-24T13:07:44.846Z,7.6
2018-02-24T13:08:46.553Z,7.6
2018-02-24T13:09:48.238Z,7.4
2018-02-24T13:10:50.068Z,7.8
2018-02-24T13:11:52.138Z,7.4
2018-02-24T13:12:54.024Z,8.2
2018-02-24T13:13:55.884Z,7.7
2018-02-24T13:14:57.693Z,7.7
2018-02-24T13:15:59.762Z,7.6
2018-02-24T13:17:01.477Z,7.5
2018-02-24T13:18:03.228Z,7.6
2018-02-24T13:19:04.998Z,6.9
2018-02-24T13:20:06.758Z,7.8
2018-02-24T13:21:08.541Z,7.2
2018-02-24T13:22:10.296Z,7.2
2018-02-24T13:23:12.073Z,6.6
2018-02-24T13:24:13.778Z,7.4
2018-02-24T13:25:15.503Z,7.1
2018-02-24T13:26:17.289Z,7.2
2018-02-24T13:27:19.089Z,7.3
2018-02-24T13:28:20.802Z,7.4
2018-02-24T13:29:22.518Z,7.3
2018-02-24T13:30:24.224Z,7.1
2018-02-24T13:31:26.046Z,7.3
2018-02-24T13:32:27.781Z,7.3
2018-02-24T13:33:29.542Z,7.0
2018-02-24T13:34:31.402Z,7.1
2018-02-24T13:35:33.265Z,6.4
2018-02-24T13:36:34.987Z,6.4
2018-02-24T13:37:36.777Z,6.5
2018-02-24T13:38:38.546Z,6.8
2018-02-24T13:39:40.378Z,6.6
2018-02-24T13:40:42.316Z,6.9
2018-02-24T13:41:44.207Z,7.2
2018-02-24T13:42:45.969Z,7.2
2018-02-24T13:43:47.744Z,6.8
2018-02-24T13:44:49.458Z,6.9
2018-02-24T13:45:51.347Z,7.2
2018-02-24T13:46:53.229Z,6.9
2018-02-24T13:47:55.042Z,6.6
2018-02-24T13:48:57.070Z,6.4
2018-02-24T13:49:59.147Z,6.7
2018-02-24T13:51:00.929Z,5.8
2018-02-24T13:52:02.630Z,6.6
2018-02-24T13:53:04.384Z,6.7
2018-02-24T13:54:06.381Z,6.7
2018-02-24T13:55:08.103Z,6.8